Kenosha, WI (53144)

6:16 PM CDT on May 03, 2015 (GMT -0500)
Stonefield North | | Change Station
CLOSE
Current Station
Personal Weather Station
Location: Kenosha, WI
Elevation: 728 ft
Nearby Weather Stations

Elev 728 ft 42.62 °N, 87.87 °W | Updated 5 seconds ago

Rain
Rain
63.7 °F
Feels Like 63.7 °F
N
8.3
Wind Variable Wind from SSW
Gusts 14.5 mph

Today
High -- | Low -- °F
--% Chance of Precip.
Yesterday
High -- | Low -- °F
Precip. -- in
5:43 AM 7:53 PM
Full, 100% visible
Pressure 29.95 in
Visibility 5.0 miles
Clouds Overcast 9500 ft
Dew Point 61 °F
Humidity 92%
Rainfall 0.04 in
Snow Depth Not available.
UV 0 out of 12
Pollen 8.80 out of 12
Air Quality Not available.
Flu Activity Local Activity
METAR KENW 032253Z 26008KT 5SM -RA OVC095 18/15 A2994 RMK AO2 RAB18 SLP140 P0004 T01780150

More Conditions Fewer Conditions

Pressure 29.95 in
Visibility 5.0 miles
Clouds Overcast 9500 ft
Dew Point 61 °F
Humidity 92%
Rainfall 0.04 in
Snow Depth Not available.
UV 0 out of 12
Pollen 8.80 out of 12
Air Quality Not available.
Flu Activity Local Activity
METAR KENW 032253Z 26008KT 5SM -RA OVC095 18/15 A2994 RMK AO2 RAB18 SLP140 P0004 T01780150

More Conditions Fewer Conditions

Nepal has a long way to go to dig out and rebuild from a devastating earthquake. We have teamed up with several charities and organizations to make contributing to the relief effort as easy as possible.
How you can help: Portlight Strategies | Red Cross
Nowcast | as of 4:38 PM CDT on May 3, 2015

An area of showers possibly with a rumble of thunder will affect far southeast Wisconsin through the late afternoon into the evening. The leading edge of these showers extended roughly from Mukwonago south to Burlington and Twin Lakes. The showers were moving mainly east at 20 mph and will affect the Racine...Kenosha...Big Bend and Franklin and possibly parts of Waukesha and Milwaukee through 7 PM CDT. Rainfall of up to two tenths of an inch is possible through the early evening. The showers and isolated thunderstorms will not end in the far southeast until around 8 PM CDT.

×

10-Day Weather Forecast

Almanac

Astronomy

May. 03, 2015 Rise Set
Actual Time
Civil Twilight
Nautical Twilight
Astronomical Twilight
Moon
Length of Visible Light
Length of Day
Tomorrow will be .
, % of the Moon is Illuminated

Today's Extremes

State Highs State Lows

Community

WunderPhotos

Upload Photos

1,818,412 photos uploaded!

WunderBlogs® & News

Nearby

Air Quality

  Air Quality AQ Index Pollutant
Not available.

Snow Depth

Station Depth Elevation

Earthquake Activity

City Distance Mag. Time & Date
Minimum magnitude displayed is 2.5.

Coastal Water Temperatures

Place Temperature

Stations

Nearby Weather Stations

Station Location Temp. Windchill Dew Point Humidity Wind Precip. Elev Updated Type